Time;durP1;ratioP1;P1;durP2;ratioP2;P2;SDS_P1;SDS_P2;PMS_P1;PMS_P2;Temp;Humidity;BMP_temperature;BMP_pressure;BME280_temperature;BME280_humidity;BME280_pressure;Samples;Min_cycle;Max_cycle;Signal;HPM_P1;HPM_P2
2024/01/13 00:01:45;;;;;;;2.50;1.52;;;7.40;69.00;;;;;;5071881;28;20032;-72
2024/01/13 00:04:11;;;;;;;1.33;1.23;;;7.40;69.00;;;;;;5091110;28;20028;-71
2024/01/13 00:06:36;;;;;;;0.70;0.70;;;7.40;69.00;;;;;;5072235;28;20116;-71
2024/01/13 00:09:02;;;;;;;0.50;0.50;;;7.30;69.20;;;;;;5083943;28;20495;-71
2024/01/13 00:11:28;;;;;;;0.60;0.60;;;7.30;69.20;;;;;;5071909;28;20426;-71
2024/01/13 00:13:53;;;;;;;0.60;0.60;;;7.30;69.30;;;;;;5071186;28;20842;-71
2024/01/13 00:16:19;;;;;;;1.17;1.17;;;7.30;69.10;;;;;;5063485;28;20035;-71
2024/01/13 00:18:44;;;;;;;0.60;0.60;;;7.40;69.10;;;;;;5083774;28;20033;-72
2024/01/13 00:21:10;;;;;;;0.57;0.57;;;7.30;69.10;;;;;;5087664;28;20410;-73
2024/01/13 00:23:36;;;;;;;0.70;0.70;;;7.30;69.20;;;;;;5073292;28;20023;-72
2024/01/13 00:26:01;;;;;;;0.77;0.77;;;7.40;69.10;;;;;;5079318;28;20024;-73
2024/01/13 00:28:27;;;;;;;1.85;1.05;;;7.40;69.10;;;;;;5066096;28;20041;-73
2024/01/13 00:30:52;;;;;;;0.90;0.90;;;7.30;69.20;;;;;;5079712;28;20072;-73
2024/01/13 00:33:18;;;;;;;0.80;0.80;;;7.40;69.20;;;;;;5090757;28;20035;-72
2024/01/13 00:35:43;;;;;;;1.08;1.08;;;7.40;69.30;;;;;;5091279;28;20425;-73
2024/01/13 00:38:09;;;;;;;0.80;0.80;;;7.40;69.10;;;;;;5076084;28;20035;-73
2024/01/13 00:40:34;;;;;;;0.50;0.50;;;7.40;69.20;;;;;;5094319;28;20395;-73
2024/01/13 00:43:00;;;;;;;0.63;0.63;;;7.40;69.20;;;;;;5095450;28;20059;-73
2024/01/13 00:45:26;;;;;;;1.48;1.30;;;7.40;69.20;;;;;;5092828;28;20110;-73
2024/01/13 00:47:51;;;;;;;0.75;0.75;;;7.40;69.20;;;;;;5095160;28;20039;-73
2024/01/13 00:50:16;;;;;;;0.70;0.70;;;7.40;69.20;;;;;;5090230;28;20062;-73
2024/01/13 00:52:42;;;;;;;1.65;1.52;;;7.40;69.20;;;;;;5092445;28;20046;-73
2024/01/13 00:55:08;;;;;;;0.88;0.88;;;7.40;69.10;;;;;;5107958;28;20382;-73
2024/01/13 00:57:33;;;;;;;0.70;0.70;;;7.40;69.20;;;;;;5115559;28;20504;-73
2024/01/13 00:59:59;;;;;;;1.27;1.23;;;7.40;69.10;;;;;;5096210;28;20020;-73
2024/01/13 01:02:24;;;;;;;0.60;0.60;;;7.30;69.10;;;;;;5095593;28;20107;-72
2024/01/13 01:04:50;;;;;;;0.60;0.60;;;7.30;69.20;;;;;;5094928;28;20032;-73
2024/01/13 01:07:16;;;;;;;1.27;1.20;;;7.40;69.10;;;;;;5095523;28;20176;-73
2024/01/13 01:09:42;;;;;;;0.52;0.52;;;7.40;69.10;;;;;;5095389;28;20036;-72
2024/01/13 01:12:07;;;;;;;0.60;0.60;;;7.40;69.20;;;;;;5114517;28;20031;-72
2024/01/13 01:14:33;;;;;;;0.60;0.60;;;7.40;69.30;;;;;;5115387;28;20032;-72
2024/01/13 01:16:58;;;;;;;0.70;0.70;;;7.40;69.30;;;;;;5097009;28;20038;-73
2024/01/13 01:19:24;;;;;;;0.70;0.70;;;7.40;69.20;;;;;;5115124;28;20030;-72
2024/01/13 01:21:49;;;;;;;1.13;1.05;;;7.40;69.20;;;;;;5115572;28;20063;-72
2024/01/13 01:24:15;;;;;;;0.93;0.93;;;7.40;69.10;;;;;;5115271;28;20031;-73
2024/01/13 01:26:40;;;;;;;0.88;0.88;;;7.40;69.30;;;;;;5115335;28;20454;-73
2024/01/13 01:29:06;;;;;;;0.60;0.60;;;7.50;69.30;;;;;;5091063;28;20024;-71
2024/01/13 01:31:32;;;;;;;0.70;0.70;;;7.40;69.10;;;;;;5089578;28;20060;-71
2024/01/13 01:33:57;;;;;;;0.50;0.50;;;7.40;69.10;;;;;;5079291;28;20055;-71
2024/01/13 01:36:23;;;;;;;0.60;0.60;;;7.40;69.30;;;;;;5092040;28;20039;-71
2024/01/13 01:38:49;;;;;;;0.73;0.73;;;7.40;69.30;;;;;;5093789;28;20034;-71
2024/01/13 01:41:14;;;;;;;0.63;0.63;;;7.40;69.20;;;;;;5087842;28;20365;-71
2024/01/13 01:43:40;;;;;;;0.63;0.63;;;7.40;69.20;;;;;;5092522;28;20059;-71
2024/01/13 01:46:06;;;;;;;0.60;0.60;;;7.50;69.20;;;;;;5076292;28;20024;-71
2024/01/13 01:48:37;;;;;;;0.85;0.85;;;7.40;69.30;;;;;;5094410;28;20036;-71
2024/01/13 01:51:04;;;;;;;0.50;0.50;;;7.50;69.40;;;;;;5094331;28;20636;-71
2024/01/13 01:53:30;;;;;;;0.50;0.50;;;7.50;69.20;;;;;;5091671;28;20502;-71
2024/01/13 01:55:58;;;;;;;0.70;0.70;;;7.50;69.20;;;;;;5094184;28;20032;-71
2024/01/13 01:58:23;;;;;;;0.70;0.70;;;7.50;69.20;;;;;;5073997;28;20044;-71
2024/01/13 02:00:49;;;;;;;0.60;0.60;;;7.40;69.20;;;;;;5093990;28;20032;-71
2024/01/13 02:03:15;;;;;;;0.60;0.60;;;7.40;69.30;;;;;;5076097;28;20023;-71
2024/01/13 02:05:41;;;;;;;1.35;1.25;;;7.50;69.30;;;;;;5093983;28;20032;-71
2024/01/13 02:08:07;;;;;;;0.70;0.70;;;7.50;69.30;;;;;;5093414;28;20062;-71
2024/01/13 02:10:33;;;;;;;0.65;0.65;;;7.50;69.20;;;;;;5092485;28;20028;-71
2024/01/13 02:12:58;;;;;;;0.50;0.50;;;7.40;69.30;;;;;;5085070;28;20058;-71
2024/01/13 02:15:24;;;;;;;0.70;0.70;;;7.50;69.30;;;;;;5090949;28;20114;-71
2024/01/13 02:17:49;;;;;;;0.98;0.98;;;7.50;69.10;;;;;;5073880;28;20081;-71
2024/01/13 02:20:15;;;;;;;1.35;1.25;;;7.50;69.10;;;;;;5087610;28;20070;-71
2024/01/13 02:22:41;;;;;;;0.50;0.50;;;7.40;69.10;;;;;;5091863;28;20093;-71
2024/01/13 02:25:07;;;;;;;0.60;0.60;;;7.40;69.10;;;;;;5091472;28;20028;-71
2024/01/13 02:27:33;;;;;;;0.60;0.60;;;7.50;69.30;;;;;;5056223;28;20062;-72
2024/01/13 02:29:58;;;;;;;0.60;0.60;;;7.50;69.20;;;;;;5088569;28;20032;-70
2024/01/13 02:32:24;;;;;;;0.50;0.50;;;7.40;69.20;;;;;;5084590;28;20051;-71
2024/01/13 02:34:49;;;;;;;1.02;1.02;;;7.50;69.10;;;;;;5091681;28;20481;-71
2024/01/13 02:37:15;;;;;;;1.23;1.15;;;7.40;69.00;;;;;;5091984;28;20380;-71
2024/01/13 02:39:40;;;;;;;0.65;0.65;;;7.40;69.10;;;;;;5088479;28;20027;-71
2024/01/13 02:42:06;;;;;;;0.60;0.60;;;7.40;69.20;;;;;;5088378;28;20387;-71
2024/01/13 02:44:32;;;;;;;0.50;0.50;;;7.40;69.10;;;;;;5091371;28;20036;-71
2024/01/13 02:46:57;;;;;;;0.50;0.50;;;7.40;69.00;;;;;;5085267;28;20525;-71
2024/01/13 02:49:23;;;;;;;0.63;0.63;;;7.40;69.20;;;;;;5084458;28;20035;-71
2024/01/13 02:51:48;;;;;;;0.75;0.75;;;7.40;69.30;;;;;;5080628;28;20054;-71
2024/01/13 02:54:14;;;;;;;0.70;0.70;;;7.40;69.10;;;;;;5088593;28;20032;-71
2024/01/13 02:56:40;;;;;;;2.22;2.05;;;7.40;69.00;;;;;;5091498;28;20032;-71
2024/01/13 02:59:06;;;;;;;0.60;0.60;;;7.30;69.20;;;;;;5090245;28;20115;-71
2024/01/13 03:01:33;;;;;;;1.50;1.40;;;7.40;69.20;;;;;;5091032;28;20028;-71
2024/01/13 03:03:58;;;;;;;0.55;0.55;;;7.30;69.10;;;;;;5090684;28;20038;-70
2024/01/13 03:06:25;;;;;;;0.65;0.65;;;7.30;69.20;;;;;;5090955;28;20430;-71
2024/01/13 03:08:51;;;;;;;0.80;0.80;;;7.40;69.20;;;;;;5081645;28;20035;-71
2024/01/13 03:11:17;;;;;;;0.70;0.70;;;7.30;69.10;;;;;;5081792;28;20097;-71
2024/01/13 03:13:43;;;;;;;0.50;0.50;;;7.30;69.10;;;;;;5089232;28;20027;-71
2024/01/13 03:16:09;;;;;;;2.70;1.08;;;7.30;69.10;;;;;;5083829;28;20040;-71
2024/01/13 03:18:34;;;;;;;0.50;0.50;;;7.30;69.10;;;;;;5090725;28;20391;-71
2024/01/13 03:21:02;;;;;;;0.60;0.60;;;7.30;69.20;;;;;;5083687;28;20099;-71
2024/01/13 03:23:28;;;;;;;0.57;0.57;;;7.30;69.20;;;;;;5082983;28;20111;-71
2024/01/13 03:25:54;;;;;;;0.50;0.50;;;7.30;69.30;;;;;;5084211;28;20147;-71
2024/01/13 03:28:19;;;;;;;0.60;0.60;;;7.30;69.30;;;;;;5088043;28;20727;-70
2024/01/13 03:30:45;;;;;;;0.55;0.55;;;7.30;69.10;;;;;;5077836;28;20387;-72
2024/01/13 03:33:10;;;;;;;0.60;0.60;;;7.30;69.20;;;;;;5087732;28;20055;-71
2024/01/13 03:35:36;;;;;;;0.50;0.50;;;7.30;69.10;;;;;;5080130;28;20498;-71
2024/01/13 03:38:01;;;;;;;0.90;0.90;;;7.30;69.20;;;;;;5061196;28;20024;-71
2024/01/13 03:40:26;;;;;;;0.57;0.57;;;7.30;69.20;;;;;;5076010;28;20536;-71
2024/01/13 03:42:52;;;;;;;1.05;1.05;;;7.30;69.30;;;;;;5073993;28;20020;-70
2024/01/13 03:45:17;;;;;;;1.63;1.52;;;7.30;69.30;;;;;;5092152;28;20070;-72
2024/01/13 03:47:43;;;;;;;0.60;0.60;;;7.30;69.30;;;;;;5092438;28;20376;-71
2024/01/13 03:50:09;;;;;;;0.55;0.55;;;7.30;69.20;;;;;;5092021;28;20023;-71
2024/01/13 03:52:34;;;;;;;0.65;0.65;;;7.30;69.20;;;;;;5073956;28;20024;-71
2024/01/13 03:55:00;;;;;;;0.50;0.50;;;7.30;69.30;;;;;;5091967;28;20019;-71
2024/01/13 03:57:25;;;;;;;0.85;0.85;;;7.30;69.10;;;;;;5073530;28;20089;-71
2024/01/13 03:59:51;;;;;;;0.50;0.50;;;7.30;69.30;;;;;;5092011;28;20107;-71
2024/01/13 04:02:16;;;;;;;0.60;0.60;;;7.30;69.30;;;;;;5074238;28;20032;-71
2024/01/13 04:04:42;;;;;;;0.50;0.50;;;7.30;69.20;;;;;;5091841;28;20028;-71
2024/01/13 04:07:08;;;;;;;0.60;0.60;;;7.30;69.20;;;;;;5092123;28;20032;-71
2024/01/13 04:09:34;;;;;;;0.60;0.60;;;7.30;69.20;;;;;;5091495;28;20495;-70
2024/01/13 04:12:00;;;;;;;0.60;0.60;;;7.30;69.20;;;;;;5069623;28;20033;-70
2024/01/13 04:14:25;;;;;;;0.55;0.55;;;7.30;69.10;;;;;;5081992;28;20036;-71
2024/01/13 04:16:50;;;;;;;0.60;0.60;;;7.30;69.20;;;;;;5090560;28;20055;-71
2024/01/13 04:19:16;;;;;;;0.50;0.50;;;7.30;69.20;;;;;;5084436;28;20103;-71
2024/01/13 04:21:42;;;;;;;0.50;0.50;;;7.30;69.10;;;;;;5090238;28;20047;-71
2024/01/13 04:24:08;;;;;;;0.50;0.50;;;7.30;69.20;;;;;;5091769;28;20112;-71
2024/01/13 04:26:34;;;;;;;0.50;0.50;;;7.30;69.20;;;;;;5066729;28;20467;-71
2024/01/13 04:29:00;;;;;;;0.50;0.50;;;7.30;69.20;;;;;;5079176;28;20025;-71
2024/01/13 04:31:25;;;;;;;0.50;0.50;;;7.20;69.30;;;;;;5089881;28;20051;-71
2024/01/13 04:33:51;;;;;;;0.60;0.60;;;7.30;69.30;;;;;;5090005;28;20039;-71
2024/01/13 04:36:18;;;;;;;0.57;0.57;;;7.30;69.10;;;;;;5060856;28;20484;-71
2024/01/13 04:38:44;;;;;;;0.57;0.57;;;7.20;69.10;;;;;;5083305;28;20020;-71
2024/01/13 04:41:09;;;;;;;0.57;0.57;;;7.30;69.20;;;;;;5084068;28;20036;-71
2024/01/13 04:43:37;;;;;;;0.52;0.52;;;7.20;69.10;;;;;;5088110;28;20028;-71
2024/01/13 04:46:03;;;;;;;0.70;0.70;;;7.20;69.10;;;;;;5088767;28;20026;-72
2024/01/13 04:48:29;;;;;;;0.52;0.52;;;7.20;69.00;;;;;;5080073;28;20032;-71
2024/01/13 04:50:54;;;;;;;0.70;0.70;;;7.20;69.10;;;;;;5083231;28;20075;-70
2024/01/13 04:53:20;;;;;;;0.60;0.60;;;7.20;69.10;;;;;;5068544;28;20035;-71
2024/01/13 04:55:45;;;;;;;1.15;1.15;;;7.20;69.10;;;;;;5084777;28;20046;-71
2024/01/13 04:58:11;;;;;;;0.60;0.60;;;7.20;69.10;;;;;;5076922;28;20454;-70
2024/01/13 05:00:37;;;;;;;0.70;0.70;;;7.20;69.10;;;;;;5080634;28;20063;-70
2024/01/13 05:03:03;;;;;;;0.57;0.57;;;7.20;69.10;;;;;;5085056;28;20021;-71
2024/01/13 05:05:28;;;;;;;0.60;0.60;;;7.20;69.00;;;;;;5081938;28;20060;-71
2024/01/13 05:07:54;;;;;;;0.50;0.50;;;7.20;69.10;;;;;;5083354;28;20068;-71
2024/01/13 05:10:20;;;;;;;0.57;0.57;;;7.20;69.10;;;;;;5087919;28;20503;-70
2024/01/13 05:12:45;;;;;;;0.50;0.50;;;7.20;69.10;;;;;;5089959;28;20032;-71
2024/01/13 05:15:11;;;;;;;0.60;0.60;;;7.20;69.00;;;;;;5088311;28;20028;-71
2024/01/13 05:17:36;;;;;;;1.00;1.00;;;7.20;69.10;;;;;;5071088;28;20032;-71
2024/01/13 05:20:02;;;;;;;0.60;0.60;;;7.20;69.00;;;;;;5089147;28;20024;-71
2024/01/13 05:22:28;;;;;;;0.65;0.65;;;7.20;69.10;;;;;;5091978;28;20050;-70
2024/01/13 05:24:53;;;;;;;0.60;0.60;;;7.10;69.20;;;;;;5086485;28;20067;-71
2024/01/13 05:27:19;;;;;;;0.50;0.50;;;7.20;69.30;;;;;;5092797;28;20074;-71
2024/01/13 05:29:44;;;;;;;0.52;0.52;;;7.20;69.30;;;;;;5093647;28;20059;-70
2024/01/13 05:32:10;;;;;;;0.60;0.60;;;7.20;69.30;;;;;;5072814;28;20039;-71
2024/01/13 05:34:35;;;;;;;0.60;0.60;;;7.20;69.30;;;;;;5085988;28;20522;-72
2024/01/13 05:37:01;;;;;;;0.80;0.80;;;7.20;69.30;;;;;;5092400;28;20060;-72
2024/01/13 05:39:26;;;;;;;0.70;0.70;;;7.20;69.20;;;;;;5076076;28;20062;-71
2024/01/13 05:41:52;;;;;;;0.80;0.80;;;7.20;69.20;;;;;;5088866;28;20086;-71
2024/01/13 05:44:17;;;;;;;0.90;0.90;;;7.10;69.30;;;;;;5091344;28;20020;-71
2024/01/13 05:46:43;;;;;;;0.60;0.60;;;7.20;69.30;;;;;;5093175;28;20032;-70
2024/01/13 05:49:08;;;;;;;0.77;0.75;;;7.20;69.30;;;;;;5068003;28;20028;-71
2024/01/13 05:51:35;;;;;;;1.27;1.23;;;7.20;69.40;;;;;;5093092;28;20129;-71
2024/01/13 05:54:00;;;;;;;0.60;0.60;;;7.20;69.30;;;;;;5091989;28;20431;-71
2024/01/13 05:56:26;;;;;;;0.70;0.70;;;7.20;69.20;;;;;;5090404;28;20111;-71
2024/01/13 05:58:52;;;;;;;0.50;0.50;;;7.20;69.30;;;;;;5091559;28;20051;-71
2024/01/13 06:01:17;;;;;;;0.60;0.60;;;7.20;69.20;;;;;;5076119;28;20464;-71
2024/01/13 06:03:43;;;;;;;0.50;0.50;;;7.20;69.30;;;;;;5094351;28;20035;-71
2024/01/13 06:06:08;;;;;;;0.98;0.98;;;7.20;69.30;;;;;;5094476;28;20039;-70
2024/01/13 06:08:34;;;;;;;1.30;1.20;;;7.20;69.30;;;;;;5092219;28;20384;-73
2024/01/13 06:11:03;;;;;;;3.45;0.95;;;7.20;69.30;;;;;;5091159;28;20036;-73
2024/01/13 06:13:28;;;;;;;0.60;0.60;;;7.20;69.30;;;;;;5089009;28;20089;-73
2024/01/13 06:15:54;;;;;;;0.68;0.68;;;7.20;69.30;;;;;;5061771;28;20044;-72
2024/01/13 06:18:19;;;;;;;0.60;0.60;;;7.20;69.30;;;;;;5090317;28;20437;-73
2024/01/13 06:20:46;;;;;;;0.73;0.73;;;7.20;69.30;;;;;;5091620;28;20035;-72
2024/01/13 06:23:11;;;;;;;0.70;0.70;;;7.20;69.40;;;;;;5089330;28;20099;-72
2024/01/13 06:25:37;;;;;;;0.60;0.60;;;7.20;69.40;;;;;;5091735;28;20531;-72
2024/01/13 06:28:03;;;;;;;0.55;0.55;;;7.20;69.30;;;;;;5089418;28;20036;-72
2024/01/13 06:30:28;;;;;;;0.60;0.60;;;7.20;69.40;;;;;;5091579;28;20032;-73
2024/01/13 06:32:54;;;;;;;0.63;0.63;;;7.20;69.50;;;;;;5076956;28;20562;-73
2024/01/13 06:35:19;;;;;;;0.60;0.60;;;7.30;69.50;;;;;;5080809;28;20032;-72
2024/01/13 06:37:45;;;;;;;0.50;0.50;;;7.30;69.50;;;;;;5083439;28;20057;-73
2024/01/13 06:40:12;;;;;;;0.50;0.50;;;7.30;69.50;;;;;;5090736;28;20422;-73
2024/01/13 06:42:37;;;;;;;0.80;0.80;;;7.30;69.40;;;;;;5080446;28;20023;-72
2024/01/13 06:45:03;;;;;;;0.80;0.80;;;7.30;69.40;;;;;;5078830;28;20024;-73
2024/01/13 06:47:29;;;;;;;1.80;1.30;;;7.30;69.30;;;;;;5082922;28;20089;-73
2024/01/13 06:49:55;;;;;;;3.28;1.00;;;7.30;69.30;;;;;;5065012;28;20472;-73
2024/01/13 06:52:20;;;;;;;0.85;0.85;;;7.30;69.50;;;;;;5089028;28;20036;-73
2024/01/13 06:54:46;;;;;;;0.85;0.85;;;7.40;69.50;;;;;;5092684;28;20038;-73
2024/01/13 06:57:11;;;;;;;0.60;0.60;;;7.40;69.50;;;;;;5074854;28;20476;-73
2024/01/13 06:59:37;;;;;;;0.90;0.90;;;7.40;69.30;;;;;;5092989;28;20036;-73
2024/01/13 07:02:03;;;;;;;0.50;0.50;;;7.40;69.30;;;;;;5093385;28;20039;-73
2024/01/13 07:04:28;;;;;;;0.70;0.70;;;7.40;69.30;;;;;;5093155;28;20049;-73
2024/01/13 07:06:54;;;;;;;0.60;0.60;;;7.40;69.20;;;;;;5093169;28;20127;-73
2024/01/13 07:09:19;;;;;;;0.68;0.68;;;7.40;69.10;;;;;;5089315;28;20034;-73
2024/01/13 07:11:48;;;;;;;0.73;0.73;;;7.30;69.00;;;;;;5080277;28;20064;-73
2024/01/13 07:14:14;;;;;;;0.70;0.70;;;7.30;69.20;;;;;;5092671;28;20082;-73
2024/01/13 07:16:39;;;;;;;0.70;0.70;;;7.30;69.20;;;;;;5092955;28;20068;-73
2024/01/13 07:19:06;;;;;;;0.60;0.60;;;7.30;69.20;;;;;;5105284;28;20031;-71
2024/01/13 07:21:31;;;;;;;0.60;0.60;;;7.30;69.10;;;;;;5093010;28;20059;-71
2024/01/13 07:23:57;;;;;;;0.80;0.80;;;7.30;69.10;;;;;;5092635;28;20475;-71
2024/01/13 07:26:22;;;;;;;0.80;0.80;;;7.30;69.40;;;;;;5092950;28;20096;-71
2024/01/13 07:28:48;;;;;;;0.65;0.65;;;7.30;69.30;;;;;;5090244;28;20032;-72
2024/01/13 07:31:14;;;;;;;0.68;0.68;;;7.30;69.30;;;;;;5092857;28;20047;-72
2024/01/13 07:33:40;;;;;;;0.73;0.73;;;7.30;69.30;;;;;;5091264;28;20036;-72
2024/01/13 07:36:08;;;;;;;0.57;0.57;;;7.30;69.10;;;;;;5092625;28;20036;-72
2024/01/13 07:38:34;;;;;;;0.70;0.70;;;7.30;69.20;;;;;;5092385;28;20038;-72
2024/01/13 07:40:59;;;;;;;0.77;0.77;;;7.30;69.30;;;;;;5092701;28;20111;-72
2024/01/13 07:43:25;;;;;;;0.60;0.60;;;7.30;69.40;;;;;;5093015;28;20032;-72
2024/01/13 07:45:50;;;;;;;1.10;1.10;;;7.30;69.40;;;;;;5092102;28;20116;-72
2024/01/13 07:48:16;;;;;;;0.60;0.60;;;7.30;69.30;;;;;;5092339;28;20084;-72
2024/01/13 07:50:41;;;;;;;1.00;1.00;;;7.30;69.40;;;;;;5092184;28;20487;-72
2024/01/13 07:53:07;;;;;;;0.70;0.70;;;7.30;69.40;;;;;;5092203;28;20535;-72
2024/01/13 07:55:32;;;;;;;0.90;0.90;;;7.40;69.20;;;;;;5092257;28;20024;-72
2024/01/13 07:57:58;;;;;;;0.80;0.80;;;7.40;69.20;;;;;;5074123;28;20073;-72
2024/01/13 08:00:25;;;;;;;0.60;0.60;;;7.40;69.40;;;;;;5092023;28;20028;-72
2024/01/13 08:02:51;;;;;;;1.33;1.13;;;7.40;69.40;;;;;;5092021;28;20475;-72
2024/01/13 08:05:16;;;;;;;0.60;0.60;;;7.40;69.40;;;;;;5092105;28;20073;-72
2024/01/13 08:07:42;;;;;;;0.57;0.57;;;7.40;69.40;;;;;;5072576;28;20457;-72
2024/01/13 08:10:09;;;;;;;0.80;0.80;;;7.40;69.40;;;;;;5090136;28;20032;-72
2024/01/13 08:12:35;;;;;;;1.17;1.08;;;7.40;69.40;;;;;;5091976;28;20032;-72
2024/01/13 08:15:00;;;;;;;0.70;0.70;;;7.40;69.50;;;;;;5091704;28;20085;-72
2024/01/13 08:17:26;;;;;;;0.95;0.95;;;7.50;69.50;;;;;;5099145;28;20114;-72
2024/01/13 08:19:52;;;;;;;0.70;0.70;;;7.50;69.60;;;;;;5097089;28;20434;-72
2024/01/13 08:22:17;;;;;;;0.80;0.80;;;7.50;69.50;;;;;;5092532;28;20039;-72
2024/01/13 08:24:42;;;;;;;0.70;0.70;;;7.50;69.50;;;;;;5091655;28;20028;-72
2024/01/13 08:27:08;;;;;;;1.15;1.08;;;7.50;69.50;;;;;;5092176;28;20383;-72
2024/01/13 08:29:34;;;;;;;0.98;0.98;;;7.50;69.50;;;;;;5078972;28;20035;-72
2024/01/13 08:31:59;;;;;;;3.30;0.90;;;7.50;69.30;;;;;;5073211;28;20043;-72
2024/01/13 08:34:25;;;;;;;0.50;0.50;;;7.50;69.40;;;;;;5089810;28;20035;-72
2024/01/13 08:36:50;;;;;;;1.67;0.85;;;7.50;69.30;;;;;;5091896;28;20024;-72
2024/01/13 08:39:16;;;;;;;0.50;0.50;;;7.50;69.50;;;;;;5091397;28;20036;-72
2024/01/13 08:41:41;;;;;;;0.60;0.60;;;7.50;69.40;;;;;;5091722;28;20442;-72
2024/01/13 08:44:07;;;;;;;0.70;0.70;;;7.60;69.40;;;;;;5080910;28;20028;-72
2024/01/13 08:46:32;;;;;;;1.02;1.02;;;7.60;69.40;;;;;;5084403;28;20058;-72
2024/01/13 08:48:58;;;;;;;0.68;0.68;;;7.50;69.50;;;;;;5082491;28;20397;-72
2024/01/13 08:51:23;;;;;;;0.70;0.70;;;7.50;69.30;;;;;;5071448;28;20047;-72
2024/01/13 08:53:49;;;;;;;0.70;0.70;;;7.50;69.50;;;;;;5075020;28;20503;-72
2024/01/13 08:56:15;;;;;;;0.50;0.50;;;7.50;69.40;;;;;;5068455;28;20028;-72
2024/01/13 08:58:41;;;;;;;1.30;1.23;;;7.60;69.60;;;;;;5070716;28;20020;-72
2024/01/13 09:01:07;;;;;;;0.63;0.63;;;7.60;69.70;;;;;;5082973;28;20124;-72
2024/01/13 09:03:33;;;;;;;0.50;0.50;;;7.70;69.60;;;;;;5071478;28;20526;-72
2024/01/13 09:05:59;;;;;;;1.45;1.35;;;7.70;69.60;;;;;;5092318;28;20024;-72
2024/01/13 09:08:24;;;;;;;0.60;0.60;;;7.70;69.50;;;;;;5092899;28;20032;-73
2024/01/13 09:10:50;;;;;;;0.70;0.70;;;7.70;69.60;;;;;;5092948;28;20082;-72
2024/01/13 09:13:15;;;;;;;1.35;1.17;;;7.70;69.60;;;;;;5095507;28;20024;-72
2024/01/13 09:15:41;;;;;;;1.13;1.13;;;7.80;69.60;;;;;;5099965;28;20036;-72
2024/01/13 09:18:08;;;;;;;0.60;0.60;;;7.80;69.60;;;;;;5096414;28;20032;-72
2024/01/13 09:20:34;;;;;;;0.75;0.73;;;7.80;69.50;;;;;;5095222;28;20032;-72
2024/01/13 09:22:59;;;;;;;0.50;0.50;;;7.80;69.80;;;;;;5075068;28;20032;-72
2024/01/13 09:25:24;;;;;;;0.60;0.60;;;7.80;69.80;;;;;;5074671;28;20032;-72
2024/01/13 09:27:52;;;;;;;0.50;0.50;;;7.80;69.70;;;;;;5079437;28;20019;-73
2024/01/13 09:30:18;;;;;;;0.68;0.68;;;7.90;69.80;;;;;;5093208;28;20103;-73
2024/01/13 09:32:43;;;;;;;0.75;0.75;;;7.90;69.70;;;;;;5094910;28;20567;-72
2024/01/13 09:35:09;;;;;;;0.70;0.70;;;7.80;69.60;;;;;;5075172;28;20024;-73
2024/01/13 09:37:35;;;;;;;0.73;0.73;;;7.80;69.50;;;;;;5094611;28;20028;-73
2024/01/13 09:40:00;;;;;;;0.50;0.50;;;7.80;69.50;;;;;;5094643;28;20463;-72
2024/01/13 09:42:30;;;;;;;0.50;0.50;;;7.80;69.50;;;;;;5095455;28;20032;-73
2024/01/13 09:44:56;;;;;;;0.52;0.52;;;7.80;69.60;;;;;;5077660;28;20028;-72
2024/01/13 09:47:22;;;;;;;1.30;1.27;;;7.80;69.50;;;;;;5075609;28;20038;-73
2024/01/13 09:49:50;;;;;;;0.50;0.50;;;7.90;69.70;;;;;;5104045;28;20168;-72
2024/01/13 09:52:16;;;;;;;0.77;0.77;;;7.90;69.60;;;;;;5091728;28;20032;-73
2024/01/13 09:54:45;;;;;;;1.08;1.08;;;7.90;69.30;;;;;;5093585;28;20035;-70
2024/01/13 09:57:11;;;;;;;0.68;0.68;;;7.90;69.50;;;;;;5082768;28;20032;-70
2024/01/13 09:59:38;;;;;;;0.52;0.52;;;7.90;69.60;;;;;;5083141;28;20032;-73
2024/01/13 10:02:10;;;;;;;0.70;0.70;;;7.90;69.60;;;;;;5093473;28;20023;-73
2024/01/13 10:04:37;;;;;;;0.70;0.70;;;7.90;69.60;;;;;;5080718;28;20437;-73
2024/01/13 10:07:02;;;;;;;1.15;1.13;;;7.90;69.80;;;;;;5092862;28;20034;-73
2024/01/13 10:09:28;;;;;;;1.05;1.05;;;7.90;70.00;;;;;;5073361;28;20028;-72
2024/01/13 10:11:55;;;;;;;0.55;0.55;;;8.00;70.00;;;;;;5092824;28;20379;-73
2024/01/13 10:14:22;;;;;;;0.60;0.60;;;8.00;69.70;;;;;;5088864;28;20383;-72
2024/01/13 10:16:49;;;;;;;0.50;0.50;;;8.00;69.70;;;;;;5092911;28;20115;-73
2024/01/13 10:19:14;;;;;;;1.08;1.08;;;8.00;69.80;;;;;;5074438;28;20023;-73
2024/01/13 10:21:40;;;;;;;0.85;0.85;;;8.10;69.80;;;;;;5093068;28;20031;-72
2024/01/13 10:24:06;;;;;;;2.33;2.20;;;8.10;69.80;;;;;;5092516;28;20422;-73
2024/01/13 10:26:32;;;;;;;0.68;0.68;;;8.10;70.10;;;;;;5093115;28;20043;-73
2024/01/13 10:28:58;;;;;;;0.50;0.50;;;8.20;70.00;;;;;;5092603;28;20020;-72
2024/01/13 10:31:24;;;;;;;0.93;0.93;;;8.20;70.00;;;;;;5092819;28;20100;-73
2024/01/13 10:33:51;;;;;;;1.33;1.25;;;8.20;70.10;;;;;;5092341;28;20035;-73
2024/01/13 10:36:24;;;;;;;1.23;1.23;;;8.30;70.00;;;;;;5092472;28;20476;-72
2024/01/13 10:38:51;;;;;;;1.38;1.30;;;8.30;69.90;;;;;;5090131;28;20095;-73
2024/01/13 10:41:16;;;;;;;1.70;1.60;;;8.40;70.10;;;;;;5091390;28;20083;-72
2024/01/13 10:43:43;;;;;;;1.15;1.13;;;8.40;70.20;;;;;;5091935;28;20067;-73
2024/01/13 10:46:11;;;;;;;1.45;1.35;;;8.40;70.20;;;;;;5091823;28;20055;-72
2024/01/13 10:48:43;;;;;;;0.85;0.85;;;8.50;70.00;;;;;;5084835;28;20020;-73
2024/01/13 10:51:23;;;;;;;0.82;0.82;;;8.40;69.80;;;;;;5093542;28;20387;-73
2024/01/13 10:53:51;;;;;;;0.67;0.67;;;8.40;69.60;;;;;;5092967;28;20020;-73
2024/01/13 10:56:16;;;;;;;0.82;0.80;;;8.40;69.60;;;;;;5093537;28;20317;-70
2024/01/13 10:58:46;;;;;;;0.95;0.95;;;8.40;69.70;;;;;;5091550;28;20024;-73
2024/01/13 11:01:12;;;;;;;0.60;0.60;;;8.30;69.70;;;;;;5075286;28;20032;-71
2024/01/13 11:03:40;;;;;;;1.00;1.00;;;8.30;69.40;;;;;;5069011;28;20028;-71
2024/01/13 11:06:05;;;;;;;0.55;0.55;;;8.30;69.50;;;;;;5081694;28;20035;-71
2024/01/13 11:08:31;;;;;;;0.65;0.65;;;8.30;69.50;;;;;;5093124;28;20024;-71
2024/01/13 11:10:58;;;;;;;0.60;0.60;;;8.20;69.60;;;;;;5058381;28;20388;-71
2024/01/13 11:13:28;;;;;;;5.28;1.92;;;8.30;69.80;;;;;;5072788;28;20470;-71
2024/01/13 11:16:01;;;;;;;0.73;0.73;;;8.30;69.60;;;;;;5089051;28;20036;-71
2024/01/13 11:18:27;;;;;;;0.40;0.40;;;8.30;69.60;;;;;;5092154;28;20487;-72
2024/01/13 11:21:06;;;;;;;0.90;0.90;;;8.30;69.50;;;;;;5083995;28;20063;-72
2024/01/13 11:23:37;;;;;;;0.82;0.82;;;8.30;69.40;;;;;;5072605;28;20027;-71
2024/01/13 11:26:03;;;;;;;1.65;1.55;;;8.30;69.50;;;;;;5072675;28;20036;-71
2024/01/13 11:28:49;;;;;;;1.05;1.05;;;8.30;69.70;;;;;;5083276;28;20040;-71
2024/01/13 11:31:30;;;;;;;0.60;0.60;;;8.30;70.10;;;;;;5086953;28;20028;-72
2024/01/13 11:33:58;;;;;;;0.70;0.70;;;8.30;70.00;;;;;;5071859;28;20024;-71
2024/01/13 11:36:26;;;;;;;0.82;0.82;;;8.40;70.10;;;;;;5072084;28;20059;-72
2024/01/13 11:38:52;;;;;;;3.95;1.42;;;8.40;69.70;;;;;;5088245;28;20360;-71
2024/01/13 11:41:18;;;;;;;0.90;0.90;;;8.40;69.60;;;;;;5086420;28;20039;-72
2024/01/13 11:43:44;;;;;;;2.50;1.77;;;8.30;69.70;;;;;;5078795;28;20025;-72
2024/01/13 11:46:14;;;;;;;0.68;0.68;;;8.30;69.60;;;;;;5071563;28;20120;-71
2024/01/13 11:48:41;;;;;;;0.93;0.93;;;8.30;69.50;;;;;;5081032;28;20503;-71
2024/01/13 11:51:13;;;;;;;0.77;0.77;;;8.30;69.40;;;;;;5092213;28;20024;-71
2024/01/13 11:53:45;;;;;;;2.38;0.93;;;8.30;69.50;;;;;;5089755;28;20487;-71
2024/01/13 11:56:13;;;;;;;0.70;0.70;;;8.30;69.50;;;;;;5076573;28;20056;-71
2024/01/13 11:58:40;;;;;;;0.50;0.50;;;8.30;69.80;;;;;;5091283;28;20044;-72
2024/01/13 12:01:08;;;;;;;1.20;1.20;;;8.30;69.60;;;;;;5090544;28;20028;-72
2024/01/13 12:03:34;;;;;;;0.50;0.50;;;8.30;69.70;;;;;;5090193;28;20024;-72
2024/01/13 12:06:00;;;;;;;0.90;0.90;;;8.30;69.90;;;;;;5089902;28;20027;-72
2024/01/13 12:08:26;;;;;;;10.10;1.15;;;8.30;69.90;;;;;;5081755;28;20357;-72
2024/01/13 12:10:53;;;;;;;0.80;0.80;;;8.30;69.80;;;;;;5090407;28;20028;-72
2024/01/13 12:13:21;;;;;;;0.77;0.75;;;8.40;69.90;;;;;;5088722;28;20020;-72
2024/01/13 12:15:47;;;;;;;0.80;0.80;;;8.40;70.00;;;;;;5054479;28;20078;-72
2024/01/13 12:18:25;;;;;;;0.50;0.50;;;8.40;69.90;;;;;;5071675;28;20036;-72
2024/01/13 12:21:00;;;;;;;0.60;0.60;;;8.40;70.00;;;;;;5071206;28;20020;-72
2024/01/13 12:23:26;;;;;;;0.40;0.40;;;8.50;70.00;;;;;;5089702;28;20028;-72
2024/01/13 12:25:52;;;;;;;0.50;0.50;;;8.50;69.90;;;;;;5080548;28;20497;-71
2024/01/13 12:28:19;;;;;;;1.20;1.20;;;8.50;69.80;;;;;;5087346;28;20047;-72
2024/01/13 12:30:45;;;;;;;0.60;0.60;;;8.50;69.60;;;;;;5086853;28;20063;-72
2024/01/13 12:33:11;;;;;;;0.50;0.50;;;8.50;69.70;;;;;;5091593;28;20433;-72
2024/01/13 12:35:37;;;;;;;0.52;0.52;;;8.50;69.50;;;;;;5087839;28;20063;-72
2024/01/13 12:38:06;;;;;;;0.68;0.68;;;8.50;69.50;;;;;;5086871;28;20066;-72
2024/01/13 12:40:35;;;;;;;0.50;0.50;;;8.40;69.40;;;;;;5084274;28;20029;-72
2024/01/13 12:43:01;;;;;;;0.52;0.52;;;8.40;69.30;;;;;;5069851;28;20028;-72
2024/01/13 12:45:27;;;;;;;0.60;0.60;;;8.30;69.30;;;;;;5058088;28;20028;-72
2024/01/13 12:47:53;;;;;;;0.60;0.60;;;8.30;69.40;;;;;;5090553;28;20057;-71
2024/01/13 12:50:19;;;;;;;0.60;0.60;;;8.30;69.30;;;;;;5090091;28;20028;-71
2024/01/13 12:52:45;;;;;;;0.50;0.50;;;8.30;69.40;;;;;;5089393;28;20028;-72